Time;durP1;ratioP1;P1;durP2;ratioP2;P2;SDS_P1;SDS_P2;PMS_P1;PMS_P2;Temp;Humidity;BMP_temperature;BMP_pressure;BME280_temperature;BME280_humidity;BME280_pressure;Samples;Min_cycle;Max_cycle;Signal;HPM_P1;HPM_P2
2023/10/31 00:01:43;;;;;;;5.67;3.87;;;;;;;;;;5013821;28;20092;-64
2023/10/31 00:04:08;;;;;;;7.63;4.60;;;;;;;;;;5014193;28;20277;-63
2023/10/31 00:06:33;;;;;;;6.07;3.65;;;;;;;;;;5013898;28;20041;-63
2023/10/31 00:08:59;;;;;;;9.73;4.23;;;;;;;;;;4975696;28;20029;-63
2023/10/31 00:11:24;;;;;;;7.28;5.13;;;;;;;;;;4970020;28;20309;-63
2023/10/31 00:13:49;;;;;;;6.63;4.20;;;;;;;;;;5002256;28;20471;-63
2023/10/31 00:16:15;;;;;;;6.07;4.03;;;;;;;;;;5012977;28;20380;-64
2023/10/31 00:18:40;;;;;;;6.50;4.30;;;;;;;;;;5013641;28;20036;-64
2023/10/31 00:21:05;;;;;;;5.95;3.92;;;;;;;;;;5013836;28;20087;-64
2023/10/31 00:23:30;;;;;;;6.18;4.38;;;;;;;;;;5013562;28;20029;-64
2023/10/31 00:25:56;;;;;;;6.90;3.20;;;;;;;;;;5013762;28;20129;-63
2023/10/31 00:28:21;;;;;;;7.22;4.18;;;;;;;;;;5013230;28;20297;-63
2023/10/31 00:30:46;;;;;;;7.33;4.20;;;;;;;;;;5013621;28;20495;-64
2023/10/31 00:33:12;;;;;;;7.15;4.30;;;;;;;;;;5012190;28;20655;-64
2023/10/31 00:35:37;;;;;;;9.03;5.20;;;;;;;;;;5013814;28;20056;-63
2023/10/31 00:38:02;;;;;;;7.18;4.93;;;;;;;;;;4992909;28;20332;-64
2023/10/31 00:40:28;;;;;;;9.50;5.90;;;;;;;;;;4967452;28;20030;-63
2023/10/31 00:42:53;;;;;;;8.97;5.20;;;;;;;;;;4966485;28;20276;-64
2023/10/31 00:45:19;;;;;;;8.15;4.75;;;;;;;;;;4970826;28;20300;-64
2023/10/31 00:47:44;;;;;;;6.45;4.25;;;;;;;;;;4969317;28;20041;-64
2023/10/31 00:50:09;;;;;;;10.90;5.07;;;;;;;;;;4965890;28;20049;-64
2023/10/31 00:52:34;;;;;;;8.82;5.03;;;;;;;;;;4972107;28;21232;-64
2023/10/31 00:55:00;;;;;;;9.88;5.45;;;;;;;;;;4969848;28;20053;-63
2023/10/31 00:57:25;;;;;;;15.10;6.00;;;;;;;;;;4969405;28;20023;-64
2023/10/31 00:59:50;;;;;;;10.38;6.03;;;;;;;;;;4970181;28;20279;-64
2023/10/31 01:02:15;;;;;;;10.27;5.97;;;;;;;;;;4966106;28;20025;-63
2023/10/31 01:04:41;;;;;;;12.93;6.10;;;;;;;;;;4963668;28;20276;-63
2023/10/31 01:07:06;;;;;;;15.73;7.97;;;;;;;;;;4970736;28;20965;-63
2023/10/31 01:09:31;;;;;;;12.13;8.00;;;;;;;;;;5008094;28;20759;-63
2023/10/31 01:11:56;;;;;;;13.50;8.07;;;;;;;;;;5013282;28;20483;-63
2023/10/31 01:14:22;;;;;;;15.33;8.33;;;;;;;;;;5012770;28;20771;-64
2023/10/31 01:16:47;;;;;;;12.85;8.35;;;;;;;;;;5012610;28;20685;-63
2023/10/31 01:19:12;;;;;;;14.00;7.85;;;;;;;;;;5013150;28;20105;-63
2023/10/31 01:21:37;;;;;;;16.10;7.93;;;;;;;;;;5012417;28;20048;-63
2023/10/31 01:24:03;;;;;;;13.83;7.83;;;;;;;;;;5015403;28;20280;-63
2023/10/31 01:26:28;;;;;;;16.10;8.18;;;;;;;;;;5011946;28;20264;-63
2023/10/31 01:28:53;;;;;;;15.27;7.80;;;;;;;;;;5012897;28;20060;-63
2023/10/31 01:31:18;;;;;;;15.65;8.23;;;;;;;;;;5011655;28;20030;-63
2023/10/31 01:33:45;;;;;;;12.67;7.90;;;;;;;;;;5012829;28;20022;-63
2023/10/31 01:36:12;;;;;;;14.07;8.48;;;;;;;;;;5011422;28;20638;-63
2023/10/31 01:38:37;;;;;;;13.35;7.32;;;;;;;;;;5012676;28;20080;-63
2023/10/31 01:41:02;;;;;;;14.38;7.22;;;;;;;;;;5011190;28;20029;-63
2023/10/31 01:43:37;;;;;;;11.52;6.85;;;;;;;;;;5012482;28;20514;-63
2023/10/31 01:46:02;;;;;;;12.80;6.82;;;;;;;;;;5012102;28;20506;-63
2023/10/31 01:48:29;;;;;;;15.02;7.57;;;;;;;;;;5011502;28;20117;-63
2023/10/31 01:50:55;;;;;;;11.90;6.40;;;;;;;;;;5011783;28;20507;-63
2023/10/31 01:53:21;;;;;;;11.20;6.90;;;;;;;;;;5012061;28;20029;-63
2023/10/31 01:55:47;;;;;;;19.30;7.35;;;;;;;;;;5004542;28;20424;-63
2023/10/31 01:58:12;;;;;;;12.38;7.55;;;;;;;;;;4972760;28;20480;-63
2023/10/31 02:00:40;;;;;;;12.10;7.20;;;;;;;;;;4954335;28;20859;-64
2023/10/31 02:03:06;;;;;;;15.25;8.05;;;;;;;;;;4977210;28;20031;-63
2023/10/31 02:05:32;;;;;;;14.93;7.47;;;;;;;;;;5010738;28;20025;-63
2023/10/31 02:07:57;;;;;;;11.57;6.75;;;;;;;;;;5011996;28;20203;-63
2023/10/31 02:10:22;;;;;;;11.40;5.82;;;;;;;;;;5006804;28;20071;-63
2023/10/31 02:12:47;;;;;;;10.83;6.27;;;;;;;;;;5011281;28;20586;-64
2023/10/31 02:15:13;;;;;;;11.00;6.30;;;;;;;;;;5011837;28;20612;-63
2023/10/31 02:17:38;;;;;;;9.10;5.80;;;;;;;;;;5011886;28;20813;-63
2023/10/31 02:20:04;;;;;;;9.57;4.95;;;;;;;;;;5013623;28;20088;-63
2023/10/31 02:22:29;;;;;;;8.38;5.10;;;;;;;;;;5011494;28;20389;-63
2023/10/31 02:24:54;;;;;;;12.93;6.30;;;;;;;;;;5011951;28;20029;-64
2023/10/31 02:27:19;;;;;;;7.40;4.68;;;;;;;;;;5012004;28;20331;-64
2023/10/31 02:29:44;;;;;;;10.63;5.07;;;;;;;;;;5011708;28;20038;-63
2023/10/31 02:32:10;;;;;;;9.68;5.47;;;;;;;;;;5011102;28;20129;-63
2023/10/31 02:34:35;;;;;;;10.27;4.90;;;;;;;;;;5011441;28;20022;-63
2023/10/31 02:37:00;;;;;;;6.60;4.50;;;;;;;;;;5011814;28;20030;-63
2023/10/31 02:39:25;;;;;;;11.52;5.18;;;;;;;;;;5011937;28;20456;-63
2023/10/31 02:41:51;;;;;;;6.10;3.60;;;;;;;;;;5011973;28;20387;-63
2023/10/31 02:44:16;;;;;;;6.80;3.93;;;;;;;;;;5011661;28;20696;-63
2023/10/31 02:46:41;;;;;;;7.13;4.03;;;;;;;;;;5011435;28;20790;-63
2023/10/31 02:49:08;;;;;;;6.35;4.03;;;;;;;;;;5011323;28;20029;-63
2023/10/31 02:51:34;;;;;;;8.45;3.97;;;;;;;;;;5011711;28;20052;-63
2023/10/31 02:53:59;;;;;;;6.47;4.37;;;;;;;;;;5011364;28;20464;-63
2023/10/31 02:56:25;;;;;;;7.33;4.50;;;;;;;;;;5011933;28;20276;-64
2023/10/31 02:58:50;;;;;;;6.75;4.57;;;;;;;;;;5011048;28;20268;-65
2023/10/31 03:01:17;;;;;;;6.72;4.50;;;;;;;;;;5011441;28;20033;-64
2023/10/31 03:03:43;;;;;;;6.78;4.03;;;;;;;;;;5010893;28;20502;-64
2023/10/31 03:06:08;;;;;;;9.15;4.38;;;;;;;;;;5011621;28;20037;-65
2023/10/31 03:08:33;;;;;;;6.27;4.17;;;;;;;;;;5011238;28;20041;-64
2023/10/31 03:10:58;;;;;;;5.80;4.30;;;;;;;;;;5007089;28;20313;-64
2023/10/31 03:13:23;;;;;;;7.13;4.50;;;;;;;;;;5010977;28;20264;-64
2023/10/31 03:15:49;;;;;;;6.28;4.45;;;;;;;;;;5010876;28;20415;-64
2023/10/31 03:18:14;;;;;;;6.53;3.87;;;;;;;;;;5010858;28;20495;-64
2023/10/31 03:20:40;;;;;;;5.53;4.32;;;;;;;;;;5011607;28;20620;-64
2023/10/31 03:23:05;;;;;;;6.00;4.00;;;;;;;;;;5010989;28;20101;-64
2023/10/31 03:25:30;;;;;;;5.70;4.13;;;;;;;;;;5011044;28;20026;-64
2023/10/31 03:27:55;;;;;;;5.67;3.97;;;;;;;;;;4997732;28;20317;-64
2023/10/31 03:30:21;;;;;;;5.70;3.72;;;;;;;;;;5011083;28;20296;-64
2023/10/31 03:32:46;;;;;;;4.88;3.42;;;;;;;;;;5009136;28;20040;-64
2023/10/31 03:35:11;;;;;;;4.40;3.30;;;;;;;;;;5011167;28;20021;-65
2023/10/31 03:37:41;;;;;;;7.43;3.63;;;;;;;;;;4999683;28;20293;-64
2023/10/31 03:40:06;;;;;;;5.40;3.30;;;;;;;;;;4967499;28;20707;-64
2023/10/31 03:42:32;;;;;;;6.65;3.97;;;;;;;;;;4965485;28;20026;-64
2023/10/31 03:44:57;;;;;;;5.40;3.83;;;;;;;;;;4968813;28;20873;-65
2023/10/31 03:47:22;;;;;;;6.33;4.13;;;;;;;;;;4970300;28;21204;-64
2023/10/31 03:49:47;;;;;;;5.50;3.93;;;;;;;;;;4967314;28;21293;-63
2023/10/31 03:52:12;;;;;;;7.10;4.60;;;;;;;;;;4968912;28;21105;-64
2023/10/31 03:54:38;;;;;;;6.47;4.47;;;;;;;;;;4970094;28;21076;-63
2023/10/31 03:57:03;;;;;;;5.70;3.93;;;;;;;;;;4969204;28;20093;-63
2023/10/31 03:59:28;;;;;;;6.40;4.32;;;;;;;;;;4969985;28;20283;-64
2023/10/31 04:01:53;;;;;;;5.30;3.37;;;;;;;;;;4967829;28;20999;-64
2023/10/31 04:04:19;;;;;;;4.80;3.38;;;;;;;;;;4969756;28;21192;-64
2023/10/31 04:06:44;;;;;;;8.32;4.38;;;;;;;;;;4974063;28;20026;-64
2023/10/31 04:09:09;;;;;;;8.00;3.50;;;;;;;;;;4971299;28;20851;-64
2023/10/31 04:11:35;;;;;;;4.95;3.53;;;;;;;;;;4971622;28;20132;-64
2023/10/31 04:14:00;;;;;;;5.30;3.42;;;;;;;;;;4972643;28;20041;-64
2023/10/31 04:16:25;;;;;;;5.60;3.75;;;;;;;;;;4967215;28;20030;-64
2023/10/31 04:18:51;;;;;;;6.70;4.28;;;;;;;;;;4955021;28;20943;-64
2023/10/31 04:21:16;;;;;;;5.33;3.53;;;;;;;;;;4958633;28;20026;-64
2023/10/31 04:23:41;;;;;;;5.55;3.75;;;;;;;;;;4957485;28;21204;-64
2023/10/31 04:26:06;;;;;;;5.07;3.20;;;;;;;;;;4970030;28;20128;-64
2023/10/31 04:28:32;;;;;;;4.38;2.97;;;;;;;;;;4970137;28;21190;-64
2023/10/31 04:30:57;;;;;;;6.47;3.85;;;;;;;;;;5007395;28;20065;-65
2023/10/31 04:33:22;;;;;;;4.63;3.45;;;;;;;;;;5013646;28;20034;-64
2023/10/31 04:35:47;;;;;;;5.20;3.30;;;;;;;;;;5012874;28;20109;-64
2023/10/31 04:38:13;;;;;;;6.53;4.25;;;;;;;;;;5014058;28;20061;-62
2023/10/31 04:40:38;;;;;;;4.75;3.15;;;;;;;;;;5013425;28;20058;-63
2023/10/31 04:43:03;;;;;;;5.05;3.30;;;;;;;;;;5008934;28;20476;-64
2023/10/31 04:45:28;;;;;;;5.57;3.80;;;;;;;;;;5012689;28;20030;-64
2023/10/31 04:47:54;;;;;;;6.32;3.28;;;;;;;;;;5013561;28;20292;-63
2023/10/31 04:50:19;;;;;;;5.20;3.57;;;;;;;;;;5012448;28;20149;-62
2023/10/31 04:52:44;;;;;;;7.77;3.60;;;;;;;;;;5003470;28;20419;-63
2023/10/31 04:55:09;;;;;;;5.53;3.40;;;;;;;;;;5012906;28;20331;-63
2023/10/31 04:57:34;;;;;;;6.00;3.97;;;;;;;;;;5012760;28;20277;-63
2023/10/31 05:00:00;;;;;;;8.98;3.50;;;;;;;;;;5013504;28;20041;-63
2023/10/31 05:02:25;;;;;;;5.93;3.80;;;;;;;;;;4982906;28;20022;-63
2023/10/31 05:04:51;;;;;;;5.13;3.67;;;;;;;;;;4983318;28;20028;-63
2023/10/31 05:07:16;;;;;;;5.53;3.65;;;;;;;;;;4960606;28;20025;-63
2023/10/31 05:09:42;;;;;;;5.35;3.53;;;;;;;;;;4968990;28;20952;-63
2023/10/31 05:12:07;;;;;;;5.78;3.55;;;;;;;;;;4970820;28;20026;-64
2023/10/31 05:14:32;;;;;;;5.20;3.40;;;;;;;;;;4990951;28;20667;-63
2023/10/31 05:16:57;;;;;;;7.50;3.90;;;;;;;;;;5012577;28;20480;-63
2023/10/31 05:19:23;;;;;;;6.55;3.03;;;;;;;;;;5013201;28;20617;-63
2023/10/31 05:21:48;;;;;;;5.50;3.15;;;;;;;;;;5012760;28;20029;-63
2023/10/31 05:24:13;;;;;;;6.30;3.13;;;;;;;;;;5012739;28;20042;-63
2023/10/31 05:26:42;;;;;;;6.25;3.80;;;;;;;;;;5012980;28;20091;-63
2023/10/31 05:29:08;;;;;;;5.15;3.50;;;;;;;;;;5012827;28;20040;-63
2023/10/31 05:31:33;;;;;;;5.05;3.60;;;;;;;;;;5012830;28;20105;-63
2023/10/31 05:33:58;;;;;;;4.78;3.13;;;;;;;;;;5012146;28;20030;-63
2023/10/31 05:36:24;;;;;;;4.82;3.13;;;;;;;;;;5012714;28;20017;-62
2023/10/31 05:38:50;;;;;;;4.95;3.13;;;;;;;;;;5012373;28;20033;-63
2023/10/31 05:41:15;;;;;;;6.20;3.10;;;;;;;;;;5012546;28;20419;-66
2023/10/31 05:43:41;;;;;;;4.97;3.15;;;;;;;;;;5012682;28;20028;-64
2023/10/31 05:46:06;;;;;;;5.30;3.38;;;;;;;;;;5012506;28;20022;-63
2023/10/31 05:48:32;;;;;;;5.07;3.00;;;;;;;;;;5011996;28;20018;-63
2023/10/31 05:50:57;;;;;;;4.75;3.13;;;;;;;;;;5001496;28;20029;-63
2023/10/31 05:53:22;;;;;;;5.22;3.45;;;;;;;;;;4972024;28;20030;-63
2023/10/31 05:55:47;;;;;;;5.13;3.37;;;;;;;;;;4972795;28;20789;-63
2023/10/31 05:58:13;;;;;;;5.50;3.50;;;;;;;;;;4972546;28;21031;-64
2023/10/31 06:00:38;;;;;;;6.10;3.72;;;;;;;;;;4998574;28;20632;-63
2023/10/31 06:03:03;;;;;;;6.13;4.60;;;;;;;;;;5012433;28;20064;-62
2023/10/31 06:05:28;;;;;;;6.40;4.47;;;;;;;;;;5012214;28;20280;-62
2023/10/31 06:07:54;;;;;;;8.88;4.70;;;;;;;;;;5012061;28;20061;-63
2023/10/31 06:10:21;;;;;;;7.40;5.05;;;;;;;;;;5011963;28;20021;-63
2023/10/31 06:12:46;;;;;;;6.30;4.53;;;;;;;;;;5011847;28;20468;-63
2023/10/31 06:15:11;;;;;;;8.15;5.15;;;;;;;;;;5011487;28;20021;-63
2023/10/31 06:17:37;;;;;;;8.48;5.13;;;;;;;;;;5012285;28;20129;-63
2023/10/31 06:20:02;;;;;;;7.43;5.35;;;;;;;;;;5012136;28;20034;-62
2023/10/31 06:22:27;;;;;;;8.25;5.18;;;;;;;;;;5011505;28;20037;-62
2023/10/31 06:24:53;;;;;;;6.67;5.20;;;;;;;;;;5010862;28;20022;-63
2023/10/31 06:27:18;;;;;;;7.93;5.68;;;;;;;;;;5011449;28;20339;-62
2023/10/31 06:29:44;;;;;;;7.65;4.95;;;;;;;;;;5011745;28;20061;-63
2023/10/31 06:32:09;;;;;;;6.90;5.20;;;;;;;;;;5011741;28;20025;-63
2023/10/31 06:34:34;;;;;;;7.87;4.93;;;;;;;;;;5010809;28;20279;-62
2023/10/31 06:36:59;;;;;;;8.77;5.87;;;;;;;;;;5011311;28;20281;-63
2023/10/31 06:39:24;;;;;;;10.00;6.23;;;;;;;;;;5005149;28;20276;-63
2023/10/31 06:41:50;;;;;;;9.63;6.00;;;;;;;;;;5011314;28;20273;-63
2023/10/31 06:44:15;;;;;;;8.10;5.57;;;;;;;;;;5011941;28;20284;-63
2023/10/31 06:46:40;;;;;;;7.20;5.22;;;;;;;;;;5011674;28;20026;-63
2023/10/31 06:49:05;;;;;;;7.77;5.03;;;;;;;;;;5011527;28;20026;-63
2023/10/31 06:51:31;;;;;;;9.48;5.60;;;;;;;;;;5005172;28;20292;-63
2023/10/31 06:53:56;;;;;;;7.70;5.10;;;;;;;;;;5007318;28;20045;-63
2023/10/31 06:56:21;;;;;;;7.17;5.47;;;;;;;;;;4970551;28;20892;-63
2023/10/31 06:58:46;;;;;;;8.87;5.47;;;;;;;;;;4972103;28;20908;-61
2023/10/31 07:01:13;;;;;;;9.38;5.47;;;;;;;;;;4970806;28;21228;-64
2023/10/31 07:03:38;;;;;;;7.90;5.10;;;;;;;;;;4968833;28;20705;-64
2023/10/31 07:06:04;;;;;;;7.03;4.93;;;;;;;;;;4967012;28;20029;-62
2023/10/31 07:08:29;;;;;;;8.15;5.63;;;;;;;;;;4968731;28;21190;-64
2023/10/31 07:10:55;;;;;;;7.38;5.32;;;;;;;;;;4969214;28;20116;-62
2023/10/31 07:13:20;;;;;;;8.37;5.40;;;;;;;;;;4966282;28;20045;-62
2023/10/31 07:15:46;;;;;;;6.97;4.82;;;;;;;;;;4968490;28;21175;-62
2023/10/31 07:18:12;;;;;;;7.65;5.35;;;;;;;;;;4962559;28;20586;-61
2023/10/31 07:20:37;;;;;;;6.38;4.30;;;;;;;;;;4968279;28;20018;-61
2023/10/31 07:23:02;;;;;;;7.37;4.83;;;;;;;;;;4966796;28;20124;-62
2023/10/31 07:25:27;;;;;;;7.93;4.65;;;;;;;;;;4971012;28;20265;-63
2023/10/31 07:27:53;;;;;;;6.22;4.65;;;;;;;;;;4973682;28;20026;-64
2023/10/31 07:30:19;;;;;;;8.23;4.80;;;;;;;;;;4972370;28;20899;-64
2023/10/31 07:32:44;;;;;;;7.57;4.90;;;;;;;;;;4970854;28;20022;-64
2023/10/31 07:35:09;;;;;;;6.97;5.00;;;;;;;;;;4971941;28;20088;-64
2023/10/31 07:37:35;;;;;;;6.80;5.13;;;;;;;;;;4971276;28;20328;-63
2023/10/31 07:40:00;;;;;;;9.07;5.07;;;;;;;;;;4971157;28;20344;-63
2023/10/31 07:42:25;;;;;;;7.00;5.20;;;;;;;;;;4967670;28;20959;-63
2023/10/31 07:44:50;;;;;;;7.03;4.72;;;;;;;;;;4975780;28;21186;-63
2023/10/31 07:47:16;;;;;;;8.65;4.40;;;;;;;;;;4967153;28;20038;-63
2023/10/31 07:49:41;;;;;;;6.00;4.37;;;;;;;;;;4967813;28;21427;-63
2023/10/31 07:52:06;;;;;;;5.88;4.25;;;;;;;;;;4970934;28;21236;-63
2023/10/31 07:54:31;;;;;;;8.70;4.83;;;;;;;;;;4960619;28;20030;-63
2023/10/31 07:56:57;;;;;;;6.90;4.67;;;;;;;;;;4972341;28;20299;-63
2023/10/31 07:59:22;;;;;;;7.73;5.10;;;;;;;;;;4970889;28;20387;-63
2023/10/31 08:01:48;;;;;;;6.13;4.70;;;;;;;;;;4974072;28;20277;-63
2023/10/31 08:04:15;;;;;;;5.40;4.50;;;;;;;;;;4969528;28;21228;-63
2023/10/31 08:06:40;;;;;;;6.43;4.45;;;;;;;;;;4970838;28;20021;-63
2023/10/31 08:09:05;;;;;;;6.78;4.60;;;;;;;;;;4961931;28;20026;-63
2023/10/31 08:11:31;;;;;;;6.05;4.45;;;;;;;;;;4969520;28;20828;-63
2023/10/31 08:13:57;;;;;;;6.78;4.45;;;;;;;;;;4971693;28;20030;-63
2023/10/31 08:16:23;;;;;;;7.78;5.18;;;;;;;;;;4970603;28;21094;-63
2023/10/31 08:18:48;;;;;;;6.30;4.45;;;;;;;;;;4970815;28;20021;-63
2023/10/31 08:21:13;;;;;;;6.32;4.28;;;;;;;;;;4969300;28;20858;-64
2023/10/31 08:23:39;;;;;;;5.90;4.40;;;;;;;;;;4970750;28;20974;-63
2023/10/31 08:26:04;;;;;;;6.63;4.13;;;;;;;;;;4963906;28;20277;-64
2023/10/31 08:28:30;;;;;;;6.93;4.53;;;;;;;;;;4972538;28;21269;-64
2023/10/31 08:30:56;;;;;;;5.40;4.07;;;;;;;;;;4970188;28;20030;-63
2023/10/31 08:33:21;;;;;;;7.78;4.55;;;;;;;;;;4972959;28;20979;-64
2023/10/31 08:35:47;;;;;;;4.87;3.30;;;;;;;;;;4970335;28;20107;-64
2023/10/31 08:38:13;;;;;;;6.25;4.25;;;;;;;;;;4968946;28;20284;-63
2023/10/31 08:40:38;;;;;;;5.65;3.88;;;;;;;;;;4961450;28;20778;-63
2023/10/31 08:43:06;;;;;;;7.22;4.00;;;;;;;;;;4975980;28;20092;-62
2023/10/31 08:45:31;;;;;;;6.78;4.25;;;;;;;;;;4970793;28;20042;-63
2023/10/31 08:47:56;;;;;;;6.70;4.13;;;;;;;;;;4971754;28;20770;-63
2023/10/31 08:50:22;;;;;;;6.07;3.85;;;;;;;;;;4969478;28;20030;-63
2023/10/31 08:52:47;;;;;;;6.60;4.30;;;;;;;;;;4961324;28;20037;-63
2023/10/31 08:55:12;;;;;;;9.57;4.23;;;;;;;;;;4970455;28;20033;-66
2023/10/31 08:57:38;;;;;;;5.68;3.97;;;;;;;;;;4965597;28;20308;-63
2023/10/31 09:00:04;;;;;;;5.72;3.58;;;;;;;;;;4970317;28;20034;-64
2023/10/31 09:02:30;;;;;;;6.82;3.85;;;;;;;;;;4968329;28;20211;-63
2023/10/31 09:04:55;;;;;;;6.22;3.83;;;;;;;;;;4965982;28;20030;-63
2023/10/31 09:07:20;;;;;;;8.43;3.90;;;;;;;;;;4969024;28;20858;-63
2023/10/31 09:09:46;;;;;;;5.05;3.20;;;;;;;;;;4968761;28;21164;-64
2023/10/31 09:12:11;;;;;;;5.90;3.33;;;;;;;;;;4970588;28;20061;-65
2023/10/31 09:14:36;;;;;;;5.68;3.30;;;;;;;;;;4963538;28;20279;-63
2023/10/31 09:17:02;;;;;;;4.75;2.78;;;;;;;;;;4972338;28;20133;-63
2023/10/31 09:19:28;;;;;;;4.90;2.55;;;;;;;;;;4971465;28;20029;-63
2023/10/31 09:21:55;;;;;;;3.60;2.05;;;;;;;;;;4969570;28;20026;-62
2023/10/31 09:24:20;;;;;;;5.22;2.22;;;;;;;;;;4959331;28;20841;-63
2023/10/31 09:26:45;;;;;;;8.20;2.35;;;;;;;;;;4961269;28;20145;-63
2023/10/31 09:29:11;;;;;;;4.37;2.43;;;;;;;;;;4970783;28;20026;-63
2023/10/31 09:31:36;;;;;;;4.38;2.25;;;;;;;;;;4964301;28;20350;-63
2023/10/31 09:34:03;;;;;;;4.07;2.00;;;;;;;;;;4969973;28;20026;-63
2023/10/31 09:36:29;;;;;;;5.78;2.25;;;;;;;;;;4964509;28;20301;-63
2023/10/31 09:38:54;;;;;;;4.18;2.03;;;;;;;;;;4971340;28;20783;-63
2023/10/31 09:41:19;;;;;;;3.47;1.83;;;;;;;;;;4974844;28;20907;-63
2023/10/31 09:43:45;;;;;;;3.83;2.03;;;;;;;;;;4969240;28;20065;-63
2023/10/31 09:46:10;;;;;;;4.53;2.03;;;;;;;;;;4968358;28;20137;-63
2023/10/31 09:48:35;;;;;;;3.75;1.90;;;;;;;;;;4979344;28;20028;-63
2023/10/31 09:51:01;;;;;;;4.43;2.78;;;;;;;;;;4969396;28;20025;-63
2023/10/31 09:53:27;;;;;;;3.65;1.77;;;;;;;;;;4979781;28;20132;-63
2023/10/31 09:55:53;;;;;;;4.38;1.58;;;;;;;;;;4968352;28;20783;-63
2023/10/31 09:58:18;;;;;;;5.75;2.03;;;;;;;;;;4968367;28;20092;-63
2023/10/31 10:00:44;;;;;;;3.83;2.25;;;;;;;;;;4970435;28;20125;-63
2023/10/31 10:03:09;;;;;;;3.70;1.87;;;;;;;;;;4969251;28;20054;-62
2023/10/31 10:05:35;;;;;;;4.43;2.50;;;;;;;;;;4969720;28;20275;-64
2023/10/31 10:08:00;;;;;;;3.30;2.10;;;;;;;;;;4969893;28;20136;-64
2023/10/31 10:10:25;;;;;;;5.80;2.10;;;;;;;;;;4970228;28;20894;-64
2023/10/31 10:12:54;;;;;;;4.32;1.75;;;;;;;;;;4969487;28;20068;-64
2023/10/31 10:15:19;;;;;;;2.75;1.42;;;;;;;;;;4969826;28;20119;-64
2023/10/31 10:17:51;;;;;;;5.00;2.00;;;;;;;;;;4968400;28;20912;-64
2023/10/31 10:20:17;;;;;;;5.97;1.70;;;;;;;;;;4969893;28;21049;-64
2023/10/31 10:22:43;;;;;;;3.42;1.50;;;;;;;;;;4968403;28;20847;-64
2023/10/31 10:25:09;;;;;;;3.20;1.40;;;;;;;;;;4971218;28;20033;-63
2023/10/31 10:27:35;;;;;;;5.05;1.63;;;;;;;;;;4958049;28;20193;-64
2023/10/31 10:30:00;;;;;;;2.50;1.20;;;;;;;;;;4965456;28;20128;-64
2023/10/31 10:32:26;;;;;;;3.25;1.52;;;;;;;;;;4962930;28;20864;-64
2023/10/31 10:34:51;;;;;;;4.43;1.58;;;;;;;;;;4977929;28;20028;-64
2023/10/31 10:37:18;;;;;;;2.73;1.27;;;;;;;;;;4969982;28;20590;-65
2023/10/31 10:39:47;;;;;;;3.63;1.73;;;;;;;;;;4971068;28;20278;-64
2023/10/31 10:42:14;;;;;;;2.78;1.25;;;;;;;;;;4968925;28;20036;-64
2023/10/31 10:44:43;;;;;;;2.50;1.20;;;;;;;;;;4969120;28;20087;-64
2023/10/31 10:47:08;;;;;;;4.43;1.50;;;;;;;;;;4973475;28;20165;-63
2023/10/31 10:49:38;;;;;;;4.67;1.33;;;;;;;;;;4967790;28;20909;-64
2023/10/31 10:52:15;;;;;;;2.90;1.30;;;;;;;;;;4967173;28;20346;-64
2023/10/31 10:54:46;;;;;;;2.45;1.13;;;;;;;;;;4967706;28;20034;-63
2023/10/31 10:57:16;;;;;;;2.20;1.13;;;;;;;;;;4967590;28;20018;-63
2023/10/31 10:59:43;;;;;;;2.72;1.10;;;;;;;;;;4968552;28;20371;-64
2023/10/31 11:02:10;;;;;;;3.72;1.50;;;;;;;;;;4971436;28;20021;-64
2023/10/31 11:04:36;;;;;;;3.65;1.23;;;;;;;;;;4973035;28;20927;-64
2023/10/31 11:07:01;;;;;;;2.25;0.95;;;;;;;;;;4966898;28;20042;-63
2023/10/31 11:09:27;;;;;;;2.78;1.17;;;;;;;;;;4985464;28;20392;-63
2023/10/31 11:11:53;;;;;;;1.90;0.98;;;;;;;;;;4972937;28;20099;-64
2023/10/31 11:14:19;;;;;;;2.13;1.15;;;;;;;;;;4981352;28;20061;-64
2023/10/31 11:16:47;;;;;;;3.55;1.23;;;;;;;;;;4979032;28;20829;-64
2023/10/31 11:19:13;;;;;;;3.05;1.40;;;;;;;;;;4977816;28;20022;-64
2023/10/31 11:21:52;;;;;;;4.30;1.45;;;;;;;;;;4976205;28;20127;-64
2023/10/31 11:24:17;;;;;;;3.67;1.10;;;;;;;;;;4971131;28;20126;-63
2023/10/31 11:26:50;;;;;;;2.03;0.73;;;;;;;;;;4971561;28;20894;-64
2023/10/31 11:29:17;;;;;;;4.03;1.08;;;;;;;;;;4979464;28;20029;-63
2023/10/31 11:31:42;;;;;;;4.53;1.20;;;;;;;;;;4969079;28;20019;-64
2023/10/31 11:34:07;;;;;;;2.80;0.80;;;;;;;;;;4966993;28;20846;-64
2023/10/31 11:36:33;;;;;;;4.15;1.25;;;;;;;;;;4971549;28;20339;-64
2023/10/31 11:39:17;;;;;;;3.35;1.00;;;;;;;;;;4977879;28;20026;-64
2023/10/31 11:41:49;;;;;;;4.80;1.48;;;;;;;;;;4973001;28;20061;-64
2023/10/31 11:44:14;;;;;;;4.03;1.38;;;;;;;;;;4977732;28;20029;-63
2023/10/31 11:46:40;;;;;;;2.75;1.05;;;;;;;;;;4970319;28;20034;-64
2023/10/31 11:49:06;;;;;;;3.47;1.00;;;;;;;;;;4970358;28;20857;-64
2023/10/31 11:51:32;;;;;;;2.00;1.00;;;;;;;;;;4961601;28;20360;-63
2023/10/31 11:53:58;;;;;;;3.72;1.52;;;;;;;;;;4975883;28;20876;-64
2023/10/31 11:56:24;;;;;;;5.75;1.90;;;;;;;;;;4973694;28;20018;-64
2023/10/31 11:58:56;;;;;;;3.13;1.20;;;;;;;;;;4969863;28;20880;-63
2023/10/31 12:01:21;;;;;;;3.00;1.67;;;;;;;;;;4966587;28;20108;-63
2023/10/31 12:03:51;;;;;;;5.38;1.67;;;;;;;;;;4975623;28;20026;-64
2023/10/31 12:06:17;;;;;;;3.38;1.85;;;;;;;;;;4966760;28;20022;-64
2023/10/31 12:08:43;;;;;;;3.65;1.48;;;;;;;;;;4969042;28;20033;-64
2023/10/31 12:11:12;;;;;;;3.28;1.70;;;;;;;;;;4962223;28;20021;-64
2023/10/31 12:13:39;;;;;;;2.85;1.60;;;;;;;;;;4970306;28;20899;-64
2023/10/31 12:16:07;;;;;;;2.47;1.63;;;;;;;;;;4964124;28;20034;-64
2023/10/31 12:18:33;;;;;;;4.10;1.48;;;;;;;;;;4969270;28;20946;-64
2023/10/31 12:21:00;;;;;;;3.55;1.77;;;;;;;;;;4971042;28;20581;-64
2023/10/31 12:23:25;;;;;;;3.78;1.73;;;;;;;;;;4970625;28;20121;-64
2023/10/31 12:25:51;;;;;;;2.65;1.50;;;;;;;;;;4973807;28;20037;-64
2023/10/31 12:28:20;;;;;;;4.70;1.35;;;;;;;;;;4971433;28;20029;-66
2023/10/31 12:30:46;;;;;;;3.63;1.85;;;;;;;;;;4997023;28;20025;-64
2023/10/31 12:33:12;;;;;;;3.13;1.88;;;;;;;;;;4979575;28;20029;-63
2023/10/31 12:35:37;;;;;;;4.00;2.00;;;;;;;;;;4984032;28;20037;-64
2023/10/31 12:38:02;;;;;;;5.57;1.83;;;;;;;;;;4981108;28;20056;-63
2023/10/31 12:40:28;;;;;;;4.53;1.77;;;;;;;;;;4975598;28;20276;-64
2023/10/31 12:42:53;;;;;;;3.00;1.80;;;;;;;;;;4972328;28;20037;-63
2023/10/31 12:45:18;;;;;;;3.28;1.25;;;;;;;;;;4977873;28;20783;-64
2023/10/31 12:47:44;;;;;;;3.08;1.42;;;;;;;;;;4982673;28;20080;-64
2023/10/31 12:50:13;;;;;;;5.50;1.33;;;;;;;;;;4970206;28;20026;-64
2023/10/31 12:52:52;;;;;;;5.38;1.60;;;;;;;;;;4977419;28;20342;-64
2023/10/31 12:55:18;;;;;;;4.40;1.40;;;;;;;;;;4971864;28;20022;-64
2023/10/31 12:57:44;;;;;;;4.47;2.00;;;;;;;;;;4976991;28;20045;-63
2023/10/31 13:00:12;;;;;;;4.25;1.60;;;;;;;;;;4984476;28;20430;-63
2023/10/31 13:02:38;;;;;;;5.05;1.83;;;;;;;;;;4986137;28;20018;-63
2023/10/31 13:05:10;;;;;;;3.65;1.55;;;;;;;;;;4981634;28;20014;-63
2023/10/31 13:07:35;;;;;;;3.55;1.50;;;;;;;;;;4971177;28;20030;-64
2023/10/31 13:10:01;;;;;;;2.67;1.10;;;;;;;;;;4970242;28;20041;-62
2023/10/31 13:12:27;;;;;;;3.40;1.30;;;;;;;;;;4978870;28;20140;-62
2023/10/31 13:14:53;;;;;;;2.17;1.13;;;;;;;;;;4977981;28;20033;-63
2023/10/31 13:17:18;;;;;;;7.13;1.40;;;;;;;;;;4976946;28;20034;-62
2023/10/31 13:19:43;;;;;;;4.15;1.30;;;;;;;;;;4961648;28;20902;-62
2023/10/31 13:22:09;;;;;;;3.13;0.98;;;;;;;;;;4979910;28;20026;-63
2023/10/31 13:24:35;;;;;;;4.13;1.30;;;;;;;;;;4979973;28;20040;-63
2023/10/31 13:27:02;;;;;;;3.47;1.05;;;;;;;;;;4974050;28;20829;-64
2023/10/31 13:29:27;;;;;;;3.88;1.00;;;;;;;;;;4976631;28;20025;-64
2023/10/31 13:31:53;;;;;;;2.50;1.03;;;;;;;;;;4974536;28;20057;-63
2023/10/31 13:34:18;;;;;;;2.17;0.70;;;;;;;;;;4976576;28;20300;-64
2023/10/31 13:36:44;;;;;;;4.37;1.63;;;;;;;;;;4974512;28;20068;-64
2023/10/31 13:39:09;;;;;;;2.47;1.13;;;;;;;;;;4966410;28;20290;-63
2023/10/31 13:41:34;;;;;;;2.85;0.80;;;;;;;;;;4968143;28;20025;-64
2023/10/31 13:44:03;;;;;;;3.47;0.77;;;;;;;;;;4979377;28;20063;-64
2023/10/31 13:46:28;;;;;;;3.45;1.00;;;;;;;;;;4970694;28;20057;-64
2023/10/31 13:48:53;;;;;;;3.60;1.10;;;;;;;;;;4971384;28;20037;-64
2023/10/31 13:51:19;;;;;;;3.90;1.25;;;;;;;;;;4985299;28;20049;-64
2023/10/31 13:53:44;;;;;;;2.35;0.80;;;;;;;;;;4968019;28;20034;-64
2023/10/31 13:56:09;;;;;;;2.25;0.90;;;;;;;;;;4969455;28;20068;-64
2023/10/31 13:58:35;;;;;;;4.20;1.17;;;;;;;;;;4973945;28;20856;-64
2023/10/31 14:01:00;;;;;;;2.03;0.70;;;;;;;;;;4981706;28;21111;-63
2023/10/31 14:03:26;;;;;;;2.05;0.93;;;;;;;;;;4975106;28;20029;-64
2023/10/31 14:05:51;;;;;;;2.00;0.88;;;;;;;;;;4975429;28;20116;-64
2023/10/31 14:08:16;;;;;;;2.53;1.05;;;;;;;;;;4970589;28;20077;-64
2023/10/31 14:10:45;;;;;;;2.42;1.00;;;;;;;;;;4969714;28;20054;-64
2023/10/31 14:13:10;;;;;;;1.42;0.73;;;;;;;;;;4961856;28;20049;-63
2023/10/31 14:15:35;;;;;;;2.65;0.95;;;;;;;;;;4961516;28;20014;-65
2023/10/31 14:18:02;;;;;;;4.57;1.25;;;;;;;;;;4969909;28;20887;-65
2023/10/31 14:20:27;;;;;;;4.53;1.20;;;;;;;;;;4966353;28;20795;-65
2023/10/31 14:22:52;;;;;;;2.05;0.85;;;;;;;;;;4970217;28;20137;-65
2023/10/31 14:25:18;;;;;;;2.67;0.90;;;;;;;;;;4970553;28;20070;-64
2023/10/31 14:27:43;;;;;;;4.27;1.23;;;;;;;;;;4969755;28;20037;-64
2023/10/31 14:30:09;;;;;;;3.92;1.23;;;;;;;;;;4968893;28;20342;-65
2023/10/31 14:32:34;;;;;;;2.88;1.13;;;;;;;;;;4968370;28;20029;-66